sensor_id;sensor_type;location;lat;lon;timestamp;pressure;altitude;pressure_sealevel;temperature;humidity
41596;BME280;27283;52.504;13.358;2023-02-03T00:00:54;101752.53;;;5.50;69.81
41596;BME280;27283;52.504;13.358;2023-02-03T00:03:32;101741.16;;;5.23;70.51
41596;BME280;27283;52.504;13.358;2023-02-03T00:06:04;101740.06;;;5.00;71.10
41596;BME280;27283;52.504;13.358;2023-02-03T00:08:37;101738.59;;;5.34;70.18
41596;BME280;27283;52.504;13.358;2023-02-03T00:11:10;101735.50;;;5.27;70.51
41596;BME280;27283;52.504;13.358;2023-02-03T00:13:42;101724.88;;;5.64;69.65
41596;BME280;27283;52.504;13.358;2023-02-03T00:16:19;101722.22;;;5.64;69.74
41596;BME280;27283;52.504;13.358;2023-02-03T00:18:51;101723.19;;;5.50;70.50
41596;BME280;27283;52.504;13.358;2023-02-03T00:21:24;101712.03;;;5.45;71.29
41596;BME280;27283;52.504;13.358;2023-02-03T00:23:56;101705.00;;;5.31;71.99
41596;BME280;27283;52.504;13.358;2023-02-03T00:26:43;101689.41;;;5.38;72.68
41596;BME280;27283;52.504;13.358;2023-02-03T00:29:29;101687.69;;;5.37;73.50
41596;BME280;27283;52.504;13.358;2023-02-03T00:32:04;101681.28;;;5.40;73.74
41596;BME280;27283;52.504;13.358;2023-02-03T00:34:37;101664.50;;;5.50;73.92
41596;BME280;27283;52.504;13.358;2023-02-03T00:37:11;101659.78;;;4.91;76.42
41596;BME280;27283;52.504;13.358;2023-02-03T00:39:43;101663.63;;;5.13;75.91
41596;BME280;27283;52.504;13.358;2023-02-03T00:42:15;101654.03;;;5.10;76.39
41596;BME280;27283;52.504;13.358;2023-02-03T00:44:47;101642.81;;;5.05;76.70
41596;BME280;27283;52.504;13.358;2023-02-03T00:47:22;101627.28;;;5.12;76.71
41596;BME280;27283;52.504;13.358;2023-02-03T00:49:54;101634.34;;;5.37;76.05
41596;BME280;27283;52.504;13.358;2023-02-03T00:52:27;101630.75;;;5.25;75.95
41596;BME280;27283;52.504;13.358;2023-02-03T00:54:59;101630.47;;;5.04;77.67
41596;BME280;27283;52.504;13.358;2023-02-03T00:57:31;101634.41;;;4.86;79.29
41596;BME280;27283;52.504;13.358;2023-02-03T01:00:12;101633.16;;;4.91;79.25
41596;BME280;27283;52.504;13.358;2023-02-03T01:02:53;101624.41;;;4.89;79.20
41596;BME280;27283;52.504;13.358;2023-02-03T01:05:25;101624.53;;;4.88;79.08
41596;BME280;27283;52.504;13.358;2023-02-03T01:07:57;101617.16;;;4.91;79.61
41596;BME280;27283;52.504;13.358;2023-02-03T01:10:29;101604.88;;;4.89;79.99
41596;BME280;27283;52.504;13.358;2023-02-03T01:13:02;101597.22;;;5.34;78.21
41596;BME280;27283;52.504;13.358;2023-02-03T01:15:34;101603.56;;;5.20;79.06
41596;BME280;27283;52.504;13.358;2023-02-03T01:18:09;101602.44;;;4.86;80.52
41596;BME280;27283;52.504;13.358;2023-02-03T01:20:42;101600.06;;;5.07;79.34
41596;BME280;27283;52.504;13.358;2023-02-03T01:23:14;101586.31;;;5.50;78.57
41596;BME280;27283;52.504;13.358;2023-02-03T01:25:46;101574.56;;;5.28;79.32
41596;BME280;27283;52.504;13.358;2023-02-03T01:28:21;101591.78;;;5.36;77.89
41596;BME280;27283;52.504;13.358;2023-02-03T01:30:56;101577.09;;;5.30;79.71
41596;BME280;27283;52.504;13.358;2023-02-03T01:33:31;101572.13;;;5.00;79.73
41596;BME280;27283;52.504;13.358;2023-02-03T01:36:03;101553.13;;;4.67;81.09
41596;BME280;27283;52.504;13.358;2023-02-03T01:38:37;101546.31;;;5.13;80.16
41596;BME280;27283;52.504;13.358;2023-02-03T01:41:14;101545.22;;;5.28;79.48
41596;BME280;27283;52.504;13.358;2023-02-03T01:43:49;101549.88;;;5.01;79.85
41596;BME280;27283;52.504;13.358;2023-02-03T01:46:27;101536.47;;;4.76;80.88
41596;BME280;27283;52.504;13.358;2023-02-03T01:49:05;101520.88;;;4.96;81.34
41596;BME280;27283;52.504;13.358;2023-02-03T01:51:41;101514.38;;;5.00;80.94
41596;BME280;27283;52.504;13.358;2023-02-03T01:54:18;101504.97;;;5.07;80.87
41596;BME280;27283;52.504;13.358;2023-02-03T01:56:55;101498.50;;;5.23;79.27
41596;BME280;27283;52.504;13.358;2023-02-03T01:59:29;101496.06;;;4.95;80.88
41596;BME280;27283;52.504;13.358;2023-02-03T02:02:06;101492.38;;;5.09;80.56
41596;BME280;27283;52.504;13.358;2023-02-03T02:04:47;101492.94;;;5.02;80.29
41596;BME280;27283;52.504;13.358;2023-02-03T02:07:23;101490.63;;;4.84;80.82
41596;BME280;27283;52.504;13.358;2023-02-03T02:09:59;101482.75;;;4.83;81.46
41596;BME280;27283;52.504;13.358;2023-02-03T02:12:32;101479.06;;;4.59;82.53
41596;BME280;27283;52.504;13.358;2023-02-03T02:15:05;101458.75;;;4.46;82.60
41596;BME280;27283;52.504;13.358;2023-02-03T02:21:05;101440.50;;;4.65;82.52
41596;BME280;27283;52.504;13.358;2023-02-03T02:24:09;101439.75;;;5.00;81.05
41596;BME280;27283;52.504;13.358;2023-02-03T02:26:53;101424.78;;;4.73;81.55
41596;BME280;27283;52.504;13.358;2023-02-03T02:29:55;101416.75;;;4.49;83.55
41596;BME280;27283;52.504;13.358;2023-02-03T02:32:45;101401.13;;;4.82;81.55
41596;BME280;27283;52.504;13.358;2023-02-03T02:35:28;101393.72;;;4.61;81.82
41596;BME280;27283;52.504;13.358;2023-02-03T02:38:12;101377.00;;;4.59;82.46
41596;BME280;27283;52.504;13.358;2023-02-03T02:40:52;101363.88;;;4.56;82.00
41596;BME280;27283;52.504;13.358;2023-02-03T02:43:33;101367.44;;;4.43;82.67
41596;BME280;27283;52.504;13.358;2023-02-03T02:46:12;101344.59;;;4.28;83.16
41596;BME280;27283;52.504;13.358;2023-02-03T02:49:17;101350.97;;;4.25;84.08
41596;BME280;27283;52.504;13.358;2023-02-03T02:52:16;101341.31;;;4.24;84.44
41596;BME280;27283;52.504;13.358;2023-02-03T02:54:52;101341.66;;;4.20;85.04
41596;BME280;27283;52.504;13.358;2023-02-03T02:57:26;101327.31;;;3.97;85.42
41596;BME280;27283;52.504;13.358;2023-02-03T03:00:00;101327.69;;;4.16;84.69
41596;BME280;27283;52.504;13.358;2023-02-03T03:02:37;101315.38;;;4.02;84.90
41596;BME280;27283;52.504;13.358;2023-02-03T03:05:12;101314.75;;;4.36;84.25
41596;BME280;27283;52.504;13.358;2023-02-03T03:07:47;101300.50;;;4.37;84.20
41596;BME280;27283;52.504;13.358;2023-02-03T03:10:24;101299.53;;;4.38;84.60
41596;BME280;27283;52.504;13.358;2023-02-03T03:13:03;101299.94;;;4.44;84.37
41596;BME280;27283;52.504;13.358;2023-02-03T03:15:38;101300.41;;;4.25;85.69
41596;BME280;27283;52.504;13.358;2023-02-03T03:18:14;101292.72;;;4.34;84.86
41596;BME280;27283;52.504;13.358;2023-02-03T03:20:55;101278.59;;;4.20;85.33
41596;BME280;27283;52.504;13.358;2023-02-03T03:23:37;101258.25;;;4.19;86.38
41596;BME280;27283;52.504;13.358;2023-02-03T03:26:14;101254.09;;;4.28;86.07
41596;BME280;27283;52.504;13.358;2023-02-03T03:28:50;101249.06;;;4.36;85.32
41596;BME280;27283;52.504;13.358;2023-02-03T03:31:24;101242.19;;;4.45;85.70
41596;BME280;27283;52.504;13.358;2023-02-03T03:33:56;101239.38;;;4.35;86.12
41596;BME280;27283;52.504;13.358;2023-02-03T03:36:35;101233.84;;;4.25;86.19
41596;BME280;27283;52.504;13.358;2023-02-03T03:39:15;101218.97;;;4.47;85.52
41596;BME280;27283;52.504;13.358;2023-02-03T03:41:56;101216.66;;;4.18;86.75
41596;BME280;27283;52.504;13.358;2023-02-03T03:44:36;101220.19;;;4.30;86.88
41596;BME280;27283;52.504;13.358;2023-02-03T03:47:13;101216.59;;;4.31;87.22
41596;BME280;27283;52.504;13.358;2023-02-03T03:49:46;101209.81;;;4.63;86.49
41596;BME280;27283;52.504;13.358;2023-02-03T03:52:26;101198.84;;;4.78;85.35
41596;BME280;27283;52.504;13.358;2023-02-03T03:55:02;101207.38;;;4.59;86.17
41596;BME280;27283;52.504;13.358;2023-02-03T03:57:40;101214.38;;;4.85;85.40
41596;BME280;27283;52.504;13.358;2023-02-03T04:00:17;101210.59;;;4.76;84.39
41596;BME280;27283;52.504;13.358;2023-02-03T04:02:52;101206.03;;;4.54;86.14
41596;BME280;27283;52.504;13.358;2023-02-03T04:05:26;101177.94;;;4.25;87.48
41596;BME280;27283;52.504;13.358;2023-02-03T04:08:01;101196.44;;;4.51;87.82
41596;BME280;27283;52.504;13.358;2023-02-03T04:10:34;101193.75;;;4.75;85.28
41596;BME280;27283;52.504;13.358;2023-02-03T04:13:08;101161.28;;;4.59;87.11
41596;BME280;27283;52.504;13.358;2023-02-03T04:15:42;101163.00;;;4.83;86.79
41596;BME280;27283;52.504;13.358;2023-02-03T04:18:15;101168.63;;;5.13;84.99
41596;BME280;27283;52.504;13.358;2023-02-03T04:20:47;101157.84;;;5.15;85.54
41596;BME280;27283;52.504;13.358;2023-02-03T04:23:23;101155.91;;;5.51;84.10
41596;BME280;27283;52.504;13.358;2023-02-03T04:25:55;101146.31;;;5.37;85.12
41596;BME280;27283;52.504;13.358;2023-02-03T04:28:27;101135.38;;;5.63;83.30
41596;BME280;27283;52.504;13.358;2023-02-03T04:30:59;101130.31;;;5.14;85.93
41596;BME280;27283;52.504;13.358;2023-02-03T04:33:50;101123.03;;;5.28;85.68
41596;BME280;27283;52.504;13.358;2023-02-03T04:36:26;101128.50;;;5.38;85.53
41596;BME280;27283;52.504;13.358;2023-02-03T04:39:00;101133.19;;;5.57;85.13
41596;BME280;27283;52.504;13.358;2023-02-03T04:41:32;101123.09;;;5.72;84.41
41596;BME280;27283;52.504;13.358;2023-02-03T04:44:05;101107.47;;;5.67;85.62
41596;BME280;27283;52.504;13.358;2023-02-03T04:46:36;101097.38;;;5.82;84.39
41596;BME280;27283;52.504;13.358;2023-02-03T04:49:09;101098.72;;;5.76;85.64
41596;BME280;27283;52.504;13.358;2023-02-03T04:51:41;101087.38;;;5.95;84.49
41596;BME280;27283;52.504;13.358;2023-02-03T04:54:16;101080.09;;;5.97;85.71
41596;BME280;27283;52.504;13.358;2023-02-03T04:56:48;101070.41;;;5.96;85.56
41596;BME280;27283;52.504;13.358;2023-02-03T04:59:22;101073.41;;;5.92;85.92
41596;BME280;27283;52.504;13.358;2023-02-03T05:01:55;101077.34;;;5.88;85.95
41596;BME280;27283;52.504;13.358;2023-02-03T05:04:27;101071.53;;;6.15;85.93
41596;BME280;27283;52.504;13.358;2023-02-03T05:06:59;101059.44;;;6.32;84.76
41596;BME280;27283;52.504;13.358;2023-02-03T05:09:34;101060.00;;;6.14;86.35
41596;BME280;27283;52.504;13.358;2023-02-03T05:12:06;101056.19;;;5.96;88.58
41596;BME280;27283;52.504;13.358;2023-02-03T05:14:39;101056.63;;;6.33;87.84
41596;BME280;27283;52.504;13.358;2023-02-03T05:17:11;101048.03;;;6.30;88.03
41596;BME280;27283;52.504;13.358;2023-02-03T05:19:43;101038.31;;;6.29;88.70
41596;BME280;27283;52.504;13.358;2023-02-03T05:22:15;101032.88;;;6.61;87.37
41596;BME280;27283;52.504;13.358;2023-02-03T05:24:50;101037.56;;;6.69;87.63
41596;BME280;27283;52.504;13.358;2023-02-03T05:27:22;101031.22;;;6.39;89.45
41596;BME280;27283;52.504;13.358;2023-02-03T05:29:55;101030.53;;;6.68;89.03
41596;BME280;27283;52.504;13.358;2023-02-03T05:32:27;101020.31;;;6.83;89.35
41596;BME280;27283;52.504;13.358;2023-02-03T05:35:00;101025.00;;;7.00;88.36
41596;BME280;27283;52.504;13.358;2023-02-03T05:37:33;101007.78;;;6.83;89.70
41596;BME280;27283;52.504;13.358;2023-02-03T05:40:11;101009.22;;;6.87;90.89
41596;BME280;27283;52.504;13.358;2023-02-03T05:42:56;100995.50;;;7.21;89.55
41596;BME280;27283;52.504;13.358;2023-02-03T05:45:29;100997.25;;;7.42;88.30
41596;BME280;27283;52.504;13.358;2023-02-03T05:48:01;100985.13;;;7.38;88.52
41596;BME280;27283;52.504;13.358;2023-02-03T05:50:51;100977.25;;;7.56;88.48
41596;BME280;27283;52.504;13.358;2023-02-03T05:53:24;100971.34;;;7.52;89.77
41596;BME280;27283;52.504;13.358;2023-02-03T05:56:00;100963.72;;;7.57;89.55
41596;BME280;27283;52.504;13.358;2023-02-03T05:58:33;100966.69;;;7.74;88.28
41596;BME280;27283;52.504;13.358;2023-02-03T06:01:07;100951.22;;;7.58;89.21
41596;BME280;27283;52.504;13.358;2023-02-03T06:03:43;100959.94;;;7.60;88.75
41596;BME280;27283;52.504;13.358;2023-02-03T06:06:16;100946.25;;;7.53;90.84
41596;BME280;27283;52.504;13.358;2023-02-03T06:08:49;100938.22;;;7.24;91.00
41596;BME280;27283;52.504;13.358;2023-02-03T06:11:29;100931.34;;;7.41;91.62
41596;BME280;27283;52.504;13.358;2023-02-03T06:14:02;100933.03;;;7.22;93.15
41596;BME280;27283;52.504;13.358;2023-02-03T06:16:36;100934.16;;;7.59;92.12
41596;BME280;27283;52.504;13.358;2023-02-03T06:19:09;100919.00;;;7.97;90.21
41596;BME280;27283;52.504;13.358;2023-02-03T06:21:44;100918.00;;;8.08;89.87
41596;BME280;27283;52.504;13.358;2023-02-03T06:24:18;100921.81;;;8.05;87.53
41596;BME280;27283;52.504;13.358;2023-02-03T06:26:53;100910.81;;;8.08;88.69
41596;BME280;27283;52.504;13.358;2023-02-03T06:29:26;100916.28;;;8.16;88.18
41596;BME280;27283;52.504;13.358;2023-02-03T06:31:58;100918.59;;;7.92;89.42
41596;BME280;27283;52.504;13.358;2023-02-03T06:34:31;100924.97;;;7.71;91.50
41596;BME280;27283;52.504;13.358;2023-02-03T06:37:04;100922.91;;;7.55;93.15
41596;BME280;27283;52.504;13.358;2023-02-03T06:39:36;100920.41;;;8.01;91.39
41596;BME280;27283;52.504;13.358;2023-02-03T06:42:12;100921.66;;;8.07;90.57
41596;BME280;27283;52.504;13.358;2023-02-03T06:44:44;100917.91;;;7.90;90.34
41596;BME280;27283;52.504;13.358;2023-02-03T06:47:16;100910.13;;;7.96;91.53
41596;BME280;27283;52.504;13.358;2023-02-03T06:49:49;100899.81;;;8.11;89.62
41596;BME280;27283;52.504;13.358;2023-02-03T06:52:21;100890.28;;;7.89;90.38
41596;BME280;27283;52.504;13.358;2023-02-03T06:55:06;100885.66;;;7.91;91.61
41596;BME280;27283;52.504;13.358;2023-02-03T06:57:46;100886.41;;;8.11;90.42
41596;BME280;27283;52.504;13.358;2023-02-03T07:00:19;100880.38;;;8.37;89.04
41596;BME280;27283;52.504;13.358;2023-02-03T07:02:53;100879.41;;;8.38;89.07
41596;BME280;27283;52.504;13.358;2023-02-03T07:05:26;100864.03;;;8.03;90.23
41596;BME280;27283;52.504;13.358;2023-02-03T07:07:58;100868.13;;;7.97;91.58
41596;BME280;27283;52.504;13.358;2023-02-03T07:10:30;100862.34;;;8.02;92.77
41596;BME280;27283;52.504;13.358;2023-02-03T07:13:06;100844.00;;;8.07;91.39
41596;BME280;27283;52.504;13.358;2023-02-03T07:15:38;100851.13;;;8.54;89.28
41596;BME280;27283;52.504;13.358;2023-02-03T07:18:12;100838.06;;;8.41;89.55
41596;BME280;27283;52.504;13.358;2023-02-03T07:21:06;100829.94;;;8.60;88.91
41596;BME280;27283;52.504;13.358;2023-02-03T07:23:39;100829.88;;;8.42;89.44
41596;BME280;27283;52.504;13.358;2023-02-03T07:26:12;100838.56;;;7.89;92.69
41596;BME280;27283;52.504;13.358;2023-02-03T07:28:46;100820.00;;;7.77;94.44
41596;BME280;27283;52.504;13.358;2023-02-03T07:31:20;100810.44;;;7.75;93.46
41596;BME280;27283;52.504;13.358;2023-02-03T07:33:53;100807.78;;;8.03;93.60
41596;BME280;27283;52.504;13.358;2023-02-03T07:36:35;100807.84;;;7.93;93.65
41596;BME280;27283;52.504;13.358;2023-02-03T07:39:21;100795.88;;;8.15;92.95
41596;BME280;27283;52.504;13.358;2023-02-03T07:41:58;100788.66;;;7.97;91.71
41596;BME280;27283;52.504;13.358;2023-02-03T07:44:38;100782.94;;;7.83;93.91
41596;BME280;27283;52.504;13.358;2023-02-03T07:47:10;100788.75;;;8.06;94.69
41596;BME280;27283;52.504;13.358;2023-02-03T07:49:43;100780.22;;;7.92;93.42
41596;BME280;27283;52.504;13.358;2023-02-03T07:52:16;100772.31;;;7.91;94.48
41596;BME280;27283;52.504;13.358;2023-02-03T07:54:50;100767.34;;;8.33;93.34
41596;BME280;27283;52.504;13.358;2023-02-03T07:57:22;100762.97;;;7.77;93.95
41596;BME280;27283;52.504;13.358;2023-02-03T08:00:17;100766.09;;;8.00;93.99
41596;BME280;27283;52.504;13.358;2023-02-03T08:02:50;100764.16;;;7.92;94.64
41596;BME280;27283;52.504;13.358;2023-02-03T08:05:23;100763.38;;;7.82;94.62
41596;BME280;27283;52.504;13.358;2023-02-03T08:07:56;100744.78;;;8.08;94.17
41596;BME280;27283;52.504;13.358;2023-02-03T08:10:29;100743.88;;;8.18;94.01
41596;BME280;27283;52.504;13.358;2023-02-03T08:13:02;100733.38;;;8.06;93.38
41596;BME280;27283;52.504;13.358;2023-02-03T08:15:38;100728.56;;;7.82;94.39
41596;BME280;27283;52.504;13.358;2023-02-03T08:18:32;100721.84;;;8.24;93.58
41596;BME280;27283;52.504;13.358;2023-02-03T08:21:05;100721.00;;;8.23;94.01
41596;BME280;27283;52.504;13.358;2023-02-03T08:23:37;100715.09;;;8.20;93.79
41596;BME280;27283;52.504;13.358;2023-02-03T08:26:10;100711.53;;;8.47;92.34
41596;BME280;27283;52.504;13.358;2023-02-03T08:28:42;100708.69;;;8.30;92.99
41596;BME280;27283;52.504;13.358;2023-02-03T08:31:22;100708.16;;;7.81;94.60
41596;BME280;27283;52.504;13.358;2023-02-03T08:33:54;100708.69;;;7.85;95.53
41596;BME280;27283;52.504;13.358;2023-02-03T08:36:28;100705.81;;;7.96;95.08
41596;BME280;27283;52.504;13.358;2023-02-03T08:39:02;100699.50;;;7.87;95.07
41596;BME280;27283;52.504;13.358;2023-02-03T08:41:34;100707.94;;;7.92;97.01
41596;BME280;27283;52.504;13.358;2023-02-03T08:44:06;100699.56;;;8.23;93.61
41596;BME280;27283;52.504;13.358;2023-02-03T08:46:42;100698.56;;;8.06;94.95
41596;BME280;27283;52.504;13.358;2023-02-03T08:49:14;100689.34;;;7.91;95.34
41596;BME280;27283;52.504;13.358;2023-02-03T08:51:47;100686.63;;;8.01;95.68
41596;BME280;27283;52.504;13.358;2023-02-03T08:54:20;100670.72;;;7.71;97.56
41596;BME280;27283;52.504;13.358;2023-02-03T08:56:54;100673.84;;;7.94;96.28
41596;BME280;27283;52.504;13.358;2023-02-03T08:59:27;100666.13;;;8.09;96.03
41596;BME280;27283;52.504;13.358;2023-02-03T09:02:04;100663.44;;;7.91;97.06
41596;BME280;27283;52.504;13.358;2023-02-03T09:04:38;100661.38;;;8.03;95.80
41596;BME280;27283;52.504;13.358;2023-02-03T09:07:12;100649.44;;;7.97;97.73
41596;BME280;27283;52.504;13.358;2023-02-03T09:09:45;100659.22;;;7.89;98.00
41596;BME280;27283;52.504;13.358;2023-02-03T09:12:18;100653.38;;;7.75;98.11
41596;BME280;27283;52.504;13.358;2023-02-03T09:14:51;100648.22;;;7.64;99.01
41596;BME280;27283;52.504;13.358;2023-02-03T09:17:27;100640.13;;;7.74;98.19
41596;BME280;27283;52.504;13.358;2023-02-03T09:19:59;100640.81;;;7.76;99.23
41596;BME280;27283;52.504;13.358;2023-02-03T09:22:32;100643.78;;;8.37;96.36
41596;BME280;27283;52.504;13.358;2023-02-03T09:25:06;100624.88;;;8.38;93.89
41596;BME280;27283;52.504;13.358;2023-02-03T09:27:51;100640.22;;;8.00;96.24
41596;BME280;27283;52.504;13.358;2023-02-03T09:30:25;100633.25;;;7.71;99.27
41596;BME280;27283;52.504;13.358;2023-02-03T09:33:00;100638.53;;;7.81;99.47
41596;BME280;27283;52.504;13.358;2023-02-03T09:35:33;100624.44;;;7.61;100.00
41596;BME280;27283;52.504;13.358;2023-02-03T09:38:05;100617.53;;;8.04;98.42
41596;BME280;27283;52.504;13.358;2023-02-03T09:40:38;100610.84;;;7.72;99.87
41596;BME280;27283;52.504;13.358;2023-02-03T09:43:28;100619.69;;;7.73;100.00
41596;BME280;27283;52.504;13.358;2023-02-03T09:46:05;100600.41;;;7.51;100.00
41596;BME280;27283;52.504;13.358;2023-02-03T09:48:45;100611.47;;;7.38;100.00
41596;BME280;27283;52.504;13.358;2023-02-03T09:51:23;100599.28;;;7.54;100.00
41596;BME280;27283;52.504;13.358;2023-02-03T09:54:02;100589.56;;;7.25;100.00
41596;BME280;27283;52.504;13.358;2023-02-03T09:56:38;100588.97;;;7.31;100.00
41596;BME280;27283;52.504;13.358;2023-02-03T09:59:18;100585.78;;;7.45;100.00
41596;BME280;27283;52.504;13.358;2023-02-03T10:01:55;100572.06;;;7.58;100.00
41596;BME280;27283;52.504;13.358;2023-02-03T10:04:36;100567.63;;;7.49;100.00
41596;BME280;27283;52.504;13.358;2023-02-03T10:07:13;100555.06;;;7.50;100.00
41596;BME280;27283;52.504;13.358;2023-02-03T10:09:58;100540.88;;;7.49;100.00
41596;BME280;27283;52.504;13.358;2023-02-03T10:12:57;100527.22;;;7.42;100.00
41596;BME280;27283;52.504;13.358;2023-02-03T10:15:47;100507.91;;;7.67;100.00
41596;BME280;27283;52.504;13.358;2023-02-03T10:18:28;100515.00;;;7.76;100.00
41596;BME280;27283;52.504;13.358;2023-02-03T10:21:13;100508.38;;;7.80;100.00
41596;BME280;27283;52.504;13.358;2023-02-03T10:23:48;100508.81;;;7.93;100.00
41596;BME280;27283;52.504;13.358;2023-02-03T10:26:26;100509.59;;;7.68;100.00
41596;BME280;27283;52.504;13.358;2023-02-03T10:29:04;100510.91;;;7.63;100.00
41596;BME280;27283;52.504;13.358;2023-02-03T10:31:40;100525.97;;;8.01;100.00
41596;BME280;27283;52.504;13.358;2023-02-03T10:34:17;100524.41;;;7.98;100.00
41596;BME280;27283;52.504;13.358;2023-02-03T10:36:59;100524.75;;;7.77;100.00
41596;BME280;27283;52.504;13.358;2023-02-03T10:39:38;100536.13;;;7.97;100.00
41596;BME280;27283;52.504;13.358;2023-02-03T10:42:13;100539.81;;;7.96;100.00
41596;BME280;27283;52.504;13.358;2023-02-03T10:44:50;100563.91;;;8.40;100.00
41596;BME280;27283;52.504;13.358;2023-02-03T10:47:28;100600.75;;;8.56;98.75
41596;BME280;27283;52.504;13.358;2023-02-03T10:50:06;100617.16;;;8.35;97.75
41596;BME280;27283;52.504;13.358;2023-02-03T10:52:42;100579.31;;;7.48;97.29
41596;BME280;27283;52.504;13.358;2023-02-03T10:55:32;100600.16;;;7.17;95.79
41596;BME280;27283;52.504;13.358;2023-02-03T10:58:13;100603.84;;;7.16;95.13
41596;BME280;27283;52.504;13.358;2023-02-03T11:01:03;100603.22;;;7.50;91.88
41596;BME280;27283;52.504;13.358;2023-02-03T11:03:57;100603.44;;;7.84;91.57
41596;BME280;27283;52.504;13.358;2023-02-03T11:06:53;100616.97;;;7.83;88.11
41596;BME280;27283;52.504;13.358;2023-02-03T11:09:32;100604.66;;;7.72;87.79
41596;BME280;27283;52.504;13.358;2023-02-03T11:12:09;100618.22;;;7.60;86.82
41596;BME280;27283;52.504;13.358;2023-02-03T11:14:45;100608.16;;;7.72;86.27
41596;BME280;27283;52.504;13.358;2023-02-03T11:17:20;100591.44;;;7.70;84.45
41596;BME280;27283;52.504;13.358;2023-02-03T11:20:02;100602.44;;;7.67;83.61
41596;BME280;27283;52.504;13.358;2023-02-03T11:22:39;100606.63;;;7.70;83.01
41596;BME280;27283;52.504;13.358;2023-02-03T11:25:23;100599.16;;;7.18;83.94
41596;BME280;27283;52.504;13.358;2023-02-03T11:28:03;100575.63;;;7.21;85.92
41596;BME280;27283;52.504;13.358;2023-02-03T11:30:37;100574.78;;;7.49;86.16
41596;BME280;27283;52.504;13.358;2023-02-03T11:33:17;100576.97;;;7.63;82.90
41596;BME280;27283;52.504;13.358;2023-02-03T11:35:55;100579.78;;;7.61;83.52
41596;BME280;27283;52.504;13.358;2023-02-03T11:38:30;100585.47;;;7.76;82.59
41596;BME280;27283;52.504;13.358;2023-02-03T11:41:14;100605.69;;;8.07;80.75
41596;BME280;27283;52.504;13.358;2023-02-03T11:43:54;100596.81;;;8.06;79.74
41596;BME280;27283;52.504;13.358;2023-02-03T11:46:27;100599.84;;;7.75;80.69
41596;BME280;27283;52.504;13.358;2023-02-03T11:49:06;100603.34;;;7.94;80.30
41596;BME280;27283;52.504;13.358;2023-02-03T11:51:49;100598.13;;;7.74;80.60
41596;BME280;27283;52.504;13.358;2023-02-03T11:54:32;100603.16;;;7.41;82.16
41596;BME280;27283;52.504;13.358;2023-02-03T11:57:28;100599.41;;;7.98;79.52
41596;BME280;27283;52.504;13.358;2023-02-03T12:00:18;100605.88;;;7.95;79.36
41596;BME280;27283;52.504;13.358;2023-02-03T12:03:19;100604.59;;;8.18;79.77
41596;BME280;27283;52.504;13.358;2023-02-03T12:09:10;100608.78;;;7.38;77.81
41596;BME280;27283;52.504;13.358;2023-02-03T12:12:03;100598.72;;;7.96;78.96
41596;BME280;27283;52.504;13.358;2023-02-03T12:14:49;100608.34;;;8.43;75.78
41596;BME280;27283;52.504;13.358;2023-02-03T12:17:42;100600.69;;;8.12;77.62
41596;BME280;27283;52.504;13.358;2023-02-03T12:20:25;100614.84;;;8.04;78.26
41596;BME280;27283;52.504;13.358;2023-02-03T12:23:10;100600.69;;;8.48;76.89
41596;BME280;27283;52.504;13.358;2023-02-03T12:25:56;100595.34;;;8.74;73.70
41596;BME280;27283;52.504;13.358;2023-02-03T12:28:41;100590.78;;;8.93;72.69
41596;BME280;27283;52.504;13.358;2023-02-03T12:31:25;100600.91;;;8.37;72.15
41596;BME280;27283;52.504;13.358;2023-02-03T12:34:14;100598.59;;;8.42;73.15
41596;BME280;27283;52.504;13.358;2023-02-03T12:37:01;100605.81;;;8.23;71.02
41596;BME280;27283;52.504;13.358;2023-02-03T12:39:40;100590.59;;;8.24;68.47
41596;BME280;27283;52.504;13.358;2023-02-03T12:42:25;100608.88;;;8.46;68.00
41596;BME280;27283;52.504;13.358;2023-02-03T12:45:02;100604.50;;;8.90;66.82
41596;BME280;27283;52.504;13.358;2023-02-03T12:47:42;100605.41;;;8.54;67.00
41596;BME280;27283;52.504;13.358;2023-02-03T12:50:20;100586.03;;;8.42;68.34
41596;BME280;27283;52.504;13.358;2023-02-03T12:52:59;100605.72;;;8.33;66.19
41596;BME280;27283;52.504;13.358;2023-02-03T12:55:35;100618.34;;;8.41;67.74
41596;BME280;27283;52.504;13.358;2023-02-03T12:58:12;100647.63;;;8.52;68.22
41596;BME280;27283;52.504;13.358;2023-02-03T13:00:53;100677.56;;;7.84;74.79
41596;BME280;27283;52.504;13.358;2023-02-03T13:03:34;100706.00;;;7.09;82.00
41596;BME280;27283;52.504;13.358;2023-02-03T13:06:13;100745.03;;;6.63;85.45
41596;BME280;27283;52.504;13.358;2023-02-03T13:08:53;100730.63;;;6.06;89.10
41596;BME280;27283;52.504;13.358;2023-02-03T13:11:31;100713.59;;;5.97;89.52
41596;BME280;27283;52.504;13.358;2023-02-03T13:14:11;100733.28;;;6.06;88.74
41596;BME280;27283;52.504;13.358;2023-02-03T13:16:50;100733.56;;;6.02;89.41
41596;BME280;27283;52.504;13.358;2023-02-03T13:19:34;100740.22;;;5.87;89.58
41596;BME280;27283;52.504;13.358;2023-02-03T13:22:11;100743.16;;;6.25;87.52
41596;BME280;27283;52.504;13.358;2023-02-03T13:24:52;100749.53;;;6.43;87.79
41596;BME280;27283;52.504;13.358;2023-02-03T13:27:44;100764.66;;;6.13;87.26
41596;BME280;27283;52.504;13.358;2023-02-03T13:33:43;100727.25;;;5.42;86.52
41596;BME280;27283;52.504;13.358;2023-02-03T13:36:47;100722.53;;;5.45;84.75
41596;BME280;27283;52.504;13.358;2023-02-03T13:39:35;100712.34;;;5.70;83.22
41596;BME280;27283;52.504;13.358;2023-02-03T13:42:24;100723.22;;;5.88;83.58
41596;BME280;27283;52.504;13.358;2023-02-03T13:45:02;100716.06;;;6.39;82.31
41596;BME280;27283;52.504;13.358;2023-02-03T13:47:38;100720.66;;;6.17;82.43
41596;BME280;27283;52.504;13.358;2023-02-03T13:50:18;100722.63;;;6.06;81.98
41596;BME280;27283;52.504;13.358;2023-02-03T13:52:57;100722.06;;;6.12;82.19